Time;durP1;ratioP1;P1;durP2;ratioP2;P2;SDS_P1;SDS_P2;PMS_P1;PMS_P2;Temp;Humidity;BMP_temperature;BMP_pressure;BME280_temperature;BME280_humidity;BME280_pressure;Samples;Min_cycle;Max_cycle;Signal;HPM_P1;HPM_P2
2022/03/03 00:05:13;;;;;;;47.15;21.23;;;;;;;-0.39;83.90;100811.25;20936351;28;20070;-69
2022/03/03 00:15:14;;;;;;;44.95;20.80;;;;;;;-0.28;83.42;100808.25;20926042;28;20048;-69
2022/03/03 00:25:17;;;;;;;38.08;20.20;;;;;;;-0.10;82.42;100804.53;20930506;28;20068;-69
2022/03/03 00:35:18;;;;;;;43.63;21.15;;;;;;;-0.35;84.35;100813.97;20945254;28;20037;-69
2022/03/03 00:45:20;;;;;;;38.85;20.73;;;;;;;-0.74;87.91;100828.88;20944586;28;20071;-69
2022/03/03 00:55:22;;;;;;;40.15;20.52;;;;;;;-0.93;88.90;100839.28;20949097;28;20053;-68
2022/03/03 01:05:23;;;;;;;39.78;21.25;;;;;;;-1.08;89.84;100819.91;20941628;28;20040;-68
2022/03/03 01:15:25;;;;;;;40.00;21.15;;;;;;;-1.22;89.86;100817.63;20944792;28;20684;-69
2022/03/03 01:25:26;;;;;;;42.20;21.83;;;;;;;-1.23;90.58;100826.16;20947942;28;20052;-69
2022/03/03 01:35:28;;;;;;;38.85;21.40;;;;;;;-1.30;91.59;100819.91;20936363;28;20094;-69
2022/03/03 01:45:29;;;;;;;39.55;20.27;;;;;;;-1.40;91.95;100813.53;20944032;28;20130;-69
2022/03/03 01:55:32;;;;;;;36.42;18.63;;;;;;;-1.62;91.28;100800.69;20944117;28;20079;-69
2022/03/03 02:05:33;;;;;;;36.05;18.67;;;;;;;-1.71;92.51;100800.31;20937367;28;20049;-70
2022/03/03 02:15:35;;;;;;;37.45;19.45;;;;;;;-1.78;93.52;100795.72;20946498;28;20044;-70
2022/03/03 02:25:37;;;;;;;40.30;20.30;;;;;;;-1.79;94.37;100791.41;20934662;28;20433;-70
2022/03/03 02:35:38;;;;;;;45.55;21.35;;;;;;;-1.89;94.63;100785.03;20938041;28;20045;-69
2022/03/03 02:45:40;;;;;;;38.35;20.50;;;;;;;-1.99;94.99;100780.34;20939282;28;20052;-69
2022/03/03 02:55:41;;;;;;;37.83;20.30;;;;;;;-2.23;95.19;100788.78;20931673;28;20510;-69
2022/03/03 03:05:44;;;;;;;40.67;20.08;;;;;;;-2.26;96.49;100767.25;20938992;28;20075;-69
2022/03/03 03:15:45;;;;;;;37.97;19.67;;;;;;;-2.27;94.70;100776.63;20932430;28;20040;-70
2022/03/03 03:25:48;;;;;;;45.75;21.45;;;;;;;-2.40;96.55;100759.84;20932589;28;20533;-71
2022/03/03 03:35:49;;;;;;;45.28;22.50;;;;;;;-2.45;96.08;100761.34;20939284;28;20078;-69
2022/03/03 03:45:51;;;;;;;42.53;20.52;;;;;;;-2.53;96.53;100747.34;20928083;28;20036;-69
2022/03/03 03:55:52;;;;;;;44.83;20.60;;;;;;;-2.62;95.95;100741.84;20931840;28;20132;-69
2022/03/03 04:05:53;;;;;;;44.78;21.27;;;;;;;-2.58;96.68;100739.47;20931217;28;20464;-70
2022/03/03 04:15:55;;;;;;;41.47;21.25;;;;;;;-2.69;96.65;100744.94;20929561;28;20040;-70
2022/03/03 04:25:57;;;;;;;42.65;21.48;;;;;;;-2.81;97.82;100729.03;20933799;28;20180;-70
2022/03/03 04:35:59;;;;;;;46.70;21.48;;;;;;;-2.89;98.72;100724.44;20925974;28;20582;-71
2022/03/03 04:46:00;;;;;;;45.80;21.27;;;;;;;-2.76;98.87;100717.31;20931811;28;20095;-70
2022/03/03 04:56:02;;;;;;;43.22;21.40;;;;;;;-2.86;98.45;100705.78;20932984;28;20770;-71
2022/03/03 05:06:04;;;;;;;47.05;21.73;;;;;;;-2.90;97.80;100704.78;20923208;28;20045;-71
2022/03/03 05:16:05;;;;;;;48.38;22.90;;;;;;;-2.97;99.13;100706.97;20934414;28;20122;-69
2022/03/03 05:26:07;;;;;;;44.78;23.30;;;;;;;-3.16;98.48;100706.22;20942363;28;20664;-70
2022/03/03 05:36:10;;;;;;;42.38;21.88;;;;;;;-3.29;99.65;100697.91;20942045;28;20048;-69
2022/03/03 05:46:14;;;;;;;48.87;24.70;;;;;;;-3.27;99.60;100706.53;20946678;28;20106;-69
2022/03/03 05:56:18;;;;;;;42.83;22.45;;;;;;;-3.22;99.68;100698.22;20935449;28;20490;-70
2022/03/03 06:06:31;;;;;;;;;;;;;;;-3.19;99.76;100712.88;20941447;28;20071;-70
2022/03/03 06:16:35;;;;;;;46.38;22.42;;;;;;;-3.17;99.16;100724.91;20938875;28;19970;-69
2022/03/03 06:26:37;;;;;;;53.92;23.02;;;;;;;-3.04;99.52;100717.78;20932207;28;20048;-69
2022/03/03 06:36:39;;;;;;;53.08;25.80;;;;;;;-2.86;98.16;100704.09;20937672;28;20486;-70
2022/03/03 06:46:40;;;;;;;49.17;26.52;;;;;;;-2.68;97.30;100672.38;20937263;28;20048;-70
2022/03/03 06:56:51;;;;;;;54.97;26.45;;;;;;;-2.58;96.82;100661.69;20935520;28;20383;-69
2022/03/03 07:06:52;;;;;;;54.80;24.85;;;;;;;-2.53;96.75;100665.31;20939029;28;20114;-69
2022/03/03 07:17:05;;;;;;;48.05;24.70;;;;;;;-2.32;96.44;100665.31;20931438;28;20316;-68
2022/03/03 07:27:13;;;;;;;44.78;23.35;;;;;;;-2.11;97.00;100676.44;20935070;28;20045;-69
2022/03/03 07:37:18;;;;;;;43.92;22.30;;;;;;;-1.72;95.30;100665.97;20934507;28;20041;-68
2022/03/03 07:47:21;;;;;;;47.33;24.10;;;;;;;-1.40;93.39;100674.84;20926786;28;20102;-69
2022/03/03 07:57:25;;;;;;;48.33;23.02;;;;;;;-1.11;91.76;100677.59;20934018;28;20055;-69
2022/03/03 08:07:28;;;;;;;42.72;23.40;;;;;;;-0.84;92.62;100681.13;20928819;28;20078;-69
2022/03/03 08:17:32;;;;;;;49.50;25.80;;;;;;;-0.50;90.80;100676.25;20945306;28;20079;-69
2022/03/03 08:27:35;;;;;;;;;;;;;;;-0.28;90.51;100664.16;20946166;28;20044;-69
2022/03/03 08:38:02;;;;;;;43.30;24.02;;;;;;;0.08;90.91;100681.56;20937849;28;19921;-69
2022/03/03 08:48:08;;;;;;;42.55;21.35;;;;;;;0.43;87.29;100676.59;20927095;28;20095;-70
2022/03/03 08:58:10;;;;;;;43.70;23.13;;;;;;;0.82;88.90;100683.75;20951281;28;20436;-70
2022/03/03 09:08:12;;;;;;;45.97;23.33;;;;;;;1.10;87.65;100699.13;20933624;28;20060;-70
2022/03/03 09:18:13;;;;;;;43.85;21.90;;;;;;;1.07;84.72;100680.16;20944338;28;20478;-69
2022/03/03 09:28:15;;;;;;;40.60;21.33;;;;;;;1.51;80.48;100689.91;20935246;28;20417;-69
2022/03/03 09:38:20;;;;;;;43.83;21.92;;;;;;;2.14;77.50;100683.69;20931456;28;20068;-72
2022/03/03 09:48:21;;;;;;;40.20;21.73;;;;;;;2.58;73.36;100671.72;20945765;28;20114;-71
2022/03/03 09:58:23;;;;;;;39.85;21.38;;;;;;;2.67;71.71;100668.47;20938131;28;20098;-73
2022/03/03 10:08:26;;;;;;;38.10;21.00;;;;;;;3.16;67.52;100669.41;21030206;22;20044;-67
2022/03/03 10:18:28;;;;;;;39.15;20.75;;;;;;;3.56;66.14;100664.97;20943777;28;20098;-66
2022/03/03 10:28:32;;;;;;;34.38;20.92;;;;;;;4.01;65.71;100666.53;20928054;28;20059;-65
2022/03/03 10:38:43;;;;;;;40.10;20.10;;;;;;;4.02;63.80;100663.09;20937087;28;20045;-65
2022/03/03 10:48:45;;;;;;;35.78;21.02;;;;;;;4.42;62.46;100649.00;20932702;28;20044;-65
2022/03/03 10:58:49;;;;;;;35.42;20.80;;;;;;;4.69;63.59;100634.63;20928912;28;20098;-66
2022/03/03 11:08:53;;;;;;;36.73;19.97;;;;;;;4.82;60.30;100618.34;20936129;28;20045;-66
2022/03/03 11:18:56;;;;;;;33.22;20.70;;;;;;;5.07;62.70;100597.00;20929888;28;20044;-66
2022/03/03 11:28:58;;;;;;;36.97;20.63;;;;;;;5.01;61.38;100580.50;20928742;28;20109;-66
2022/03/03 11:39:04;;;;;;;36.20;20.73;;;;;;;5.36;57.65;100547.91;20935218;28;20520;-66
2022/03/03 11:49:11;;;;;;;40.95;21.83;;;;;;;5.48;56.56;100535.91;20922541;28;20057;-66
2022/03/03 11:59:13;;;;;;;37.67;22.23;;;;;;;5.71;56.77;100531.75;20929642;28;20044;-66
2022/03/03 12:09:16;;;;;;;42.90;21.88;;;;;;;6.23;56.78;100510.34;20930446;28;20044;-66
2022/03/03 12:19:18;;;;;;;37.38;22.25;;;;;;;6.53;54.53;100518.25;20922922;28;20040;-65
2022/03/03 12:29:34;;;;;;;40.25;23.73;;;;;;;6.57;54.83;100500.94;20932497;28;20110;-66
2022/03/03 12:39:35;;;;;;;40.10;22.55;;;;;;;6.68;54.67;100500.06;20924718;28;20040;-65
2022/03/03 12:49:39;;;;;;;41.05;23.85;;;;;;;7.25;52.67;100486.22;20923415;28;20049;-65
2022/03/03 12:59:46;;;;;;;40.55;24.45;;;;;;;7.27;52.29;100472.31;20930619;28;20444;-65
2022/03/03 13:09:52;;;;;;;45.28;25.40;;;;;;;7.62;49.81;100451.44;20920129;28;20563;-65
2022/03/03 13:19:54;;;;;;;41.67;25.00;;;;;;;7.59;51.28;100440.13;20918988;28;20052;-67
2022/03/03 13:30:06;;;;;;;42.20;24.95;;;;;;;8.08;47.95;100422.56;20926460;28;20064;-67
2022/03/03 13:40:15;;;;;;;45.55;25.55;;;;;;;8.05;49.33;100424.31;20926237;28;20047;-68
2022/03/03 13:50:17;;;;;;;37.42;22.90;;;;;;;8.38;45.92;100424.13;20938937;28;20053;-66
2022/03/03 14:00:30;;;;;;;44.13;24.75;;;;;;;8.77;45.05;100411.72;20936425;28;20045;-67
2022/03/03 14:10:51;;;;;;;47.22;24.73;;;;;;;8.60;45.11;100413.56;20849475;28;20045;-68
2022/03/03 14:20:55;;;;;;;47.50;24.60;;;;;;;8.92;43.59;100415.94;20857198;28;20179;-67
2022/03/03 14:30:58;;;;;;;40.33;24.23;;;;;;;9.02;43.15;100416.72;20852374;28;20041;-68
2022/03/03 14:41:00;;;;;;;39.78;22.63;;;;;;;8.79;44.75;100409.94;20849788;28;21402;-68
2022/03/03 14:51:04;;;;;;;39.50;23.52;;;;;;;8.73;43.54;100399.56;20858015;28;20496;-68
2022/03/03 15:01:06;;;;;;;39.40;22.17;;;;;;;8.97;42.52;100383.66;20844532;28;20065;-68
2022/03/03 15:11:08;;;;;;;37.33;22.73;;;;;;;9.04;42.08;100383.59;20850734;28;20093;-67
2022/03/03 15:21:09;;;;;;;40.13;23.65;;;;;;;9.05;42.43;100380.09;20851743;28;20045;-70
2022/03/03 15:31:11;;;;;;;38.80;22.85;;;;;;;9.09;43.80;100384.41;20855282;28;20452;-68
2022/03/03 15:41:13;;;;;;;35.45;22.27;;;;;;;9.09;43.40;100381.81;20934265;28;20437;-67
2022/03/03 15:51:14;;;;;;;38.65;21.98;;;;;;;9.08;43.08;100380.94;20924707;28;20243;-66
2022/03/03 16:01:16;;;;;;;40.03;23.13;;;;;;;8.98;44.21;100380.16;20925326;28;20033;-68
2022/03/03 16:11:19;;;;;;;39.42;22.25;;;;;;;8.79;44.78;100368.16;20944846;22;20127;-73
2022/03/03 16:21:20;;;;;;;37.38;22.73;;;;;;;8.68;45.40;100363.03;20880513;28;20036;-74
2022/03/03 16:31:55;;;;;;;38.90;23.63;;;;;;;8.46;45.50;100349.28;20892109;28;20075;-72
2022/03/03 16:41:56;;;;;;;41.63;24.48;;;;;;;8.20;47.04;100369.47;20894233;28;20452;-72
2022/03/03 16:51:58;;;;;;;40.75;21.48;;;;;;;7.87;48.23;100365.31;20877942;28;20055;-75
2022/03/03 17:01:59;;;;;;;36.40;21.05;;;;;;;7.14;51.15;100371.69;20893532;28;20397;-75
2022/03/03 17:12:02;;;;;;;45.17;24.85;;;;;;;6.62;52.57;100376.94;20889079;28;20552;-75
2022/03/03 17:22:05;;;;;;;36.30;21.65;;;;;;;6.32;53.87;100386.44;20904355;28;20123;-74
2022/03/03 17:32:06;;;;;;;45.75;26.77;;;;;;;5.94;55.58;100388.09;20892828;28;20042;-74
2022/03/03 17:42:08;;;;;;;42.83;23.80;;;;;;;5.72;55.49;100398.38;20889552;28;20049;-75
2022/03/03 17:52:10;;;;;;;53.25;30.35;;;;;;;5.47;57.39;100417.31;20891052;28;20084;-75
2022/03/03 18:02:11;;;;;;;55.58;28.48;;;;;;;5.33;56.87;100415.50;20895868;28;20048;-75
2022/03/03 18:12:13;;;;;;;49.75;28.48;;;;;;;5.25;56.62;100422.38;20900452;28;20068;-75
2022/03/03 18:22:15;;;;;;;83.00;39.08;;;;;;;4.98;57.44;100437.75;20909124;28;20042;-74
2022/03/03 18:32:17;;;;;;;170.65;81.07;;;;;;;4.97;57.14;100442.06;20896611;28;20085;-74
2022/03/03 18:42:18;;;;;;;63.63;34.20;;;;;;;4.64;58.76;100453.91;20894662;28;20041;-74
2022/03/03 18:52:20;;;;;;;68.53;34.58;;;;;;;4.44;58.98;100459.75;20904832;28;20098;-74
2022/03/03 19:02:28;;;;;;;47.92;26.83;;;;;;;4.28;58.72;100472.56;20886380;28;20041;-73
2022/03/03 19:12:40;;;;;;;50.92;29.10;;;;;;;4.38;57.18;100466.63;20892950;28;20060;-75
2022/03/03 19:22:42;;;;;;;44.50;23.85;;;;;;;4.01;59.59;100480.88;20888359;28;20061;-75
2022/03/03 19:43:07;;;;;;;43.42;23.02;;;;;;;3.17;63.77;100496.97;20865879;28;20041;-74
2022/03/03 19:53:08;;;;;;;41.97;21.55;;;;;;;2.93;64.42;100497.44;20876942;28;20103;-74
2022/03/03 20:03:10;;;;;;;38.40;21.08;;;;;;;2.77;64.73;100517.84;20885708;28;20072;-76
2022/03/03 20:13:12;;;;;;;39.08;20.92;;;;;;;2.31;70.05;100529.06;20896993;28;20054;-75
2022/03/03 20:23:15;;;;;;;38.97;20.75;;;;;;;2.07;74.41;100532.03;20879001;28;20044;-74
2022/03/03 20:33:17;;;;;;;34.10;18.83;;;;;;;1.83;74.91;100536.66;20888620;28;20053;-74
2022/03/03 20:43:18;;;;;;;41.03;20.27;;;;;;;1.62;76.53;100537.91;20882457;28;20037;-75
2022/03/03 20:53:25;;;;;;;42.45;20.92;;;;;;;1.32;77.46;100547.53;20888021;28;20127;-74
2022/03/03 21:03:27;;;;;;;38.97;19.55;;;;;;;1.13;79.34;100552.25;20916457;28;20063;-74
2022/03/03 21:13:29;;;;;;;42.90;21.33;;;;;;;1.03;73.32;100555.44;20895173;28;20667;-77
2022/03/03 21:23:31;;;;;;;51.40;24.05;;;;;;;1.00;70.00;100560.50;20894917;28;20045;-74
2022/03/03 21:33:34;;;;;;;59.60;28.95;;;;;;;1.06;67.32;100565.84;20902175;28;20049;-77
2022/03/03 21:43:36;;;;;;;43.63;21.30;;;;;;;1.00;67.05;100575.97;20895819;28;20047;-73
2022/03/03 21:53:39;;;;;;;41.20;20.88;;;;;;;1.12;64.29;100568.56;20908685;28;20045;-75
2022/03/03 22:03:41;;;;;;;35.85;19.67;;;;;;;1.30;61.96;100570.72;20899112;28;20098;-79
2022/03/03 22:13:42;;;;;;;41.92;21.90;;;;;;;1.66;59.92;100570.69;20914839;28;20095;-78
2022/03/03 22:23:44;;;;;;;38.97;18.70;;;;;;;1.99;57.05;100569.72;20906797;28;20044;-77
2022/03/03 22:33:45;;;;;;;34.28;18.20;;;;;;;1.95;57.58;100573.06;20893457;28;20036;-78
2022/03/03 22:43:47;;;;;;;31.40;16.45;;;;;;;1.90;57.79;100570.38;20895321;28;20054;-77
2022/03/03 22:53:48;;;;;;;35.75;17.85;;;;;;;1.71;58.39;100588.88;20902492;28;20559;-76
2022/03/03 23:14:13;;;;;;;35.92;17.40;;;;;;;1.28;60.12;100604.19;20906500;28;20053;-77
2022/03/03 23:24:15;;;;;;;34.15;16.52;;;;;;;1.17;60.36;100609.94;20932262;28;20170;-78
2022/03/03 23:34:16;;;;;;;29.38;15.68;;;;;;;1.02;61.20;100610.41;20895768;28;20061;-76
2022/03/03 23:44:18;;;;;;;31.80;16.80;;;;;;;0.88;62.71;100615.19;20896112;28;20049;-77
2022/03/03 23:54:20;;;;;;;35.00;17.67;;;;;;;0.80;63.38;100618.41;20884607;28;20094;-76
